createdAt,value
2023-08-30T00:05:23.591Z,26.4
2023-08-30T00:10:59.712Z,26.4
2023-08-30T00:16:20.692Z,26.4
2023-08-30T00:21:40.296Z,26.4
2023-08-30T00:27:01.125Z,26.4
2023-08-30T00:32:23.118Z,26.4
2023-08-30T00:37:43.930Z,26.4
2023-08-30T00:43:04.943Z,26.4
2023-08-30T00:48:11.169Z,26.5
2023-08-30T00:53:48.019Z,26.4
2023-08-30T00:59:28.017Z,26.5
2023-08-30T01:05:04.399Z,26.5
2023-08-30T01:10:24.801Z,26.5
2023-08-30T01:15:46.388Z,26.5
2023-08-30T01:21:22.455Z,26.5
2023-08-30T01:26:58.762Z,26.5
2023-08-30T01:32:50.347Z,26.5
2023-08-30T01:38:27.342Z,26.5
2023-08-30T01:44:17.572Z,26.5
2023-08-30T01:50:09.715Z,26.6
2023-08-30T01:55:45.655Z,26.5
2023-08-30T02:01:36.484Z,26.6
2023-08-30T02:07:28.576Z,26.6
2023-08-30T02:13:04.563Z,26.6
2023-08-30T02:18:57.410Z,26.6
2023-08-30T02:24:38.325Z,26.5
2023-08-30T02:30:14.551Z,26.6
2023-08-30T02:35:50.585Z,26.6
2023-08-30T02:41:27.539Z,26.6
2023-08-30T02:47:06.662Z,26.6
2023-08-30T02:52:42.412Z,26.5
2023-08-30T02:58:34.704Z,26.6
2023-08-30T03:04:26.435Z,26.5
2023-08-30T03:10:19.790Z,26.6
2023-08-30T03:16:11.946Z,26.6
2023-08-30T03:22:03.747Z,26.6
2023-08-30T03:27:54.852Z,26.5
2023-08-30T03:33:47.844Z,26.6
2023-08-30T03:39:23.854Z,26.6
2023-08-30T03:44:44.279Z,26.6
2023-08-30T03:50:06.690Z,26.6
2023-08-30T03:55:27.952Z,26.6
2023-08-30T04:01:06.406Z,26.6
2023-08-30T04:06:44.129Z,25.9
2023-08-30T04:12:05.048Z,25.6
2023-08-30T04:17:43.740Z,25.6
2023-08-30T04:23:08.192Z,25.4
2023-08-30T04:28:14.602Z,25.4
2023-08-30T04:33:51.179Z,25.3
2023-08-30T04:39:54.209Z,24.9
2023-08-30T04:45:47.666Z,24.9
2023-08-30T04:51:40.671Z,25.2
2023-08-30T04:57:33.125Z,24.8
2023-08-30T05:03:25.598Z,24.6
2023-08-30T05:09:17.320Z,24.4
2023-08-30T05:15:09.323Z,24.4
2023-08-30T05:20:48.437Z,24.4
2023-08-30T05:26:41.907Z,24.5
2023-08-30T05:32:34.195Z,24.6
2023-08-30T05:38:26.868Z,24.3
2023-08-30T05:44:18.250Z,24.4
2023-08-30T05:50:10.136Z,24.6
2023-08-30T05:56:01.949Z,24.5
2023-08-30T06:01:55.232Z,24.6
2023-08-30T06:07:47.468Z,24.7
2023-08-30T06:13:38.299Z,24.6
2023-08-30T06:19:28.824Z,24.8
2023-08-30T06:25:20.981Z,24.8
2023-08-30T06:31:10.834Z,24.8
2023-08-30T06:37:02.273Z,24.7
2023-08-30T06:42:56.773Z,24.8
2023-08-30T06:48:32.961Z,24.8
2023-08-30T06:54:09.944Z,24.8
2023-08-30T06:59:46.634Z,24.8
2023-08-30T07:05:22.577Z,24.8
2023-08-30T07:11:01.588Z,24.9
2023-08-30T07:16:53.284Z,25
2023-08-30T07:22:40.860Z,24.9
2023-08-30T07:28:18.349Z,24.9
2023-08-30T07:34:11.660Z,25.1
2023-08-30T07:40:21.300Z,25.2
2023-08-30T07:46:17.413Z,25.3
2023-08-30T07:52:09.671Z,25.2
2023-08-30T07:58:18.700Z,25.3
2023-08-30T08:04:22.810Z,25.4
2023-08-30T08:10:15.396Z,25.3
2023-08-30T08:16:07.497Z,25.3
2023-08-30T08:21:44.472Z,25.4
2023-08-30T08:27:39.274Z,25.3
2023-08-30T08:33:30.605Z,25.4
2023-08-30T08:39:24.161Z,25.4
2023-08-30T08:45:28.024Z,25.4
2023-08-30T08:51:05.058Z,25.5
2023-08-30T08:57:19.185Z,25.6
2023-08-30T09:03:32.576Z,25.6
2023-08-30T09:09:22.857Z,25.6
2023-08-30T09:15:25.297Z,25.6
2023-08-30T09:21:32.049Z,25.7
2023-08-30T09:27:23.814Z,25.7
2023-08-30T09:33:29.001Z,25.8
2023-08-30T09:39:21.135Z,25.8
2023-08-30T09:45:36.382Z,25.8
2023-08-30T09:51:39.937Z,25.8
2023-08-30T10:34:50.734Z,25.8
2023-08-30T10:40:41.836Z,25.9
2023-08-30T10:46:53.396Z,26
2023-08-30T10:52:45.910Z,26
2023-08-30T10:58:37.506Z,26
2023-08-30T11:04:47.039Z,26
2023-08-30T11:10:23.920Z,26
2023-08-30T11:16:15.950Z,26.1
2023-08-30T11:22:06.859Z,26.1
2023-08-30T11:27:45.160Z,26.1
2023-08-30T11:33:22.090Z,26.1
2023-08-30T11:38:42.097Z,26.1
2023-08-30T11:44:31.155Z,26.1
2023-08-30T11:50:09.345Z,26.1
2023-08-30T11:55:51.826Z,26.1
2023-08-30T12:01:28.339Z,26.2
2023-08-30T12:07:21.093Z,26.2
2023-08-30T12:13:12.681Z,26.2
2023-08-30T12:18:49.372Z,26.2
2023-08-30T12:24:26.234Z,26.3
2023-08-30T12:30:16.706Z,26.3
2023-08-30T12:35:53.422Z,26.3
2023-08-30T12:41:32.973Z,26.3
2023-08-30T12:47:09.164Z,26.3
2023-08-30T12:52:46.067Z,26.3
2023-08-30T12:58:38.521Z,26.3
2023-08-30T13:04:16.638Z,26.3
2023-08-30T13:10:08.291Z,26.3
2023-08-30T13:15:45.043Z,26.4
2023-08-30T13:21:05.387Z,26.4
2023-08-30T13:26:51.703Z,26.4
2023-08-30T13:32:28.678Z,26.4
2023-08-30T13:38:05.160Z,26.4
2023-08-30T13:43:41.935Z,26.5
2023-08-30T13:49:23.283Z,26.6
2023-08-30T13:54:59.300Z,26.5
2023-08-30T14:00:35.810Z,26.4
2023-08-30T14:06:13.174Z,26.4
2023-08-30T14:12:07.686Z,26.4
2023-08-30T14:18:01.632Z,26.4
2023-08-30T14:23:38.681Z,26.4
2023-08-30T14:29:33.378Z,26.4
2023-08-30T14:35:26.950Z,26.4
2023-08-30T14:41:04.563Z,26.4
2023-08-30T14:47:13.284Z,26.4
2023-08-30T14:53:06.507Z,26.4
2023-08-30T14:59:02.352Z,26.4
2023-08-30T15:04:54.725Z,26.4
2023-08-30T15:10:48.206Z,26.4
2023-08-30T15:16:40.662Z,26.4
2023-08-30T15:22:33.563Z,26.4
2023-08-30T15:28:25.490Z,26.4
2023-08-30T15:34:19.926Z,26.4
2023-08-30T15:39:55.689Z,26.4
2023-08-30T15:45:47.284Z,26.4
2023-08-30T15:51:36.827Z,26.4
2023-08-30T15:57:28.790Z,26.4
2023-08-30T16:03:21.165Z,26.4
2023-08-30T16:09:15.719Z,26.4
2023-08-30T16:15:07.485Z,26.4
2023-08-30T16:20:59.449Z,26.4
2023-08-30T16:26:52.085Z,26.4
2023-08-30T16:32:43.925Z,26.4
2023-08-30T16:38:36.816Z,26.4
2023-08-30T16:44:32.769Z,26.4
2023-08-30T16:50:47.956Z,26.4
2023-08-30T16:56:39.611Z,26.4
2023-08-30T17:02:34.698Z,26.4
2023-08-30T17:08:26.474Z,26.4
2023-08-30T17:14:19.313Z,26.4
2023-08-30T17:20:14.180Z,26.4
2023-08-30T17:25:34.713Z,26.3
2023-08-30T17:31:11.249Z,26.3
2023-08-30T17:37:08.819Z,26.3
2023-08-30T17:43:01.535Z,26.2
2023-08-30T17:48:45.225Z,26.1
2023-08-30T17:54:22.391Z,26.1
2023-08-30T18:00:13.122Z,25.9
2023-08-30T18:05:50.796Z,25.9
2023-08-30T18:11:45.643Z,25.9
2023-08-30T18:17:21.836Z,25.8
2023-08-30T18:23:13.563Z,25.8
2023-08-30T18:28:36.244Z,25.7
2023-08-30T18:34:28.082Z,25.7
2023-08-30T18:40:21.192Z,25.6
2023-08-30T18:46:24.264Z,25.6
2023-08-30T18:52:02.120Z,25.5
2023-08-30T18:57:42.154Z,25.4
2023-08-30T19:03:05.427Z,25.3
2023-08-30T19:08:58.790Z,25.3
2023-08-30T19:14:53.587Z,25.3
2023-08-30T19:20:47.588Z,25.3
2023-08-30T19:26:25.142Z,25
2023-08-30T19:32:03.471Z,25
2023-08-30T19:37:57.526Z,24.9
2023-08-30T19:43:50.073Z,24.9
2023-08-30T19:49:43.919Z,24.9
2023-08-30T19:55:36.774Z,24.9
2023-08-30T20:01:33.268Z,24.9
2023-08-30T20:07:26.096Z,24.9
2023-08-30T20:13:18.146Z,24.6
2023-08-30T20:19:12.761Z,24.6
2023-08-30T20:24:49.506Z,24.9
2023-08-30T20:30:28.532Z,24.9
2023-08-30T20:36:24.260Z,24.9
2023-08-30T20:42:19.942Z,24.9
2023-08-30T20:48:07.124Z,24.9
2023-08-30T20:53:44.014Z,24.9
2023-08-30T20:59:52.282Z,24.4
2023-08-30T21:05:45.309Z,24.1
2023-08-30T21:11:36.826Z,24.1
2023-08-30T21:17:20.613Z,24.3
2023-08-30T21:22:57.596Z,24.1
2023-08-30T21:28:50.401Z,23.7
2023-08-30T21:34:44.056Z,24.4
2023-08-30T21:40:36.349Z,24.8
2023-08-30T21:46:29.201Z,24.9
2023-08-30T21:52:21.337Z,25.1
2023-08-30T21:58:13.584Z,25.1
2023-08-30T22:04:05.976Z,25.1
2023-08-30T22:09:58.112Z,25.2
2023-08-30T22:15:55.474Z,25.2
2023-08-30T22:21:31.551Z,25.3
2023-08-30T22:27:23.568Z,25.3
2023-08-30T22:33:16.096Z,25.3
2023-08-30T22:39:09.175Z,25.3
2023-08-30T22:44:45.661Z,25.4
2023-08-30T22:50:37.992Z,25.4
2023-08-30T22:56:39.678Z,25.4
2023-08-30T23:02:32.613Z,25.4
2023-08-30T23:08:09.766Z,25.4
2023-08-30T23:14:01.654Z,25.5
2023-08-30T23:19:38.053Z,25.5
2023-08-30T23:25:14.874Z,25.5
2023-08-30T23:31:05.194Z,25.5
2023-08-30T23:36:56.936Z,25.6
2023-08-30T23:42:52.297Z,25.6
2023-08-30T23:48:45.298Z,25.6
2023-08-30T23:54:21.838Z,25.6
2023-08-30T23:59:58.200Z,25.6
